Time;durP1;ratioP1;P1;durP2;ratioP2;P2;SDS_P1;SDS_P2;PMS_P1;PMS_P2;Temp;Humidity;BMP_temperature;BMP_pressure;BME280_temperature;BME280_humidity;BME280_pressure;Samples;Min_cycle;Max_cycle;Signal;HPM_P1;HPM_P2
2022/03/06 00:00:56;;;;;;;6.93;4.67;;;0.70;99.90;;;;;;4989685;28;20317;-45
2022/03/06 00:03:23;;;;;;;7.73;4.30;;;0.70;99.90;;;;;;5017129;28;20299;-45
2022/03/06 00:05:50;;;;;;;7.07;3.80;;;0.70;99.90;;;;;;4989448;28;20608;-43
2022/03/06 00:08:17;;;;;;;6.10;3.83;;;0.80;99.90;;;;;;5013336;28;20250;-45
2022/03/06 00:10:44;;;;;;;5.20;4.07;;;0.80;99.90;;;;;;5022841;28;20277;-43
2022/03/06 00:13:13;;;;;;;7.03;4.13;;;0.80;99.90;;;;;;4994336;28;21625;-44
2022/03/06 00:15:41;;;;;;;5.73;4.03;;;0.80;99.90;;;;;;5008978;28;20200;-43
2022/03/06 00:18:08;;;;;;;6.53;3.60;;;0.80;99.90;;;;;;5015057;28;20946;-44
2022/03/06 00:20:35;;;;;;;5.67;4.00;;;0.80;99.90;;;;;;5001542;28;20240;-43
2022/03/06 00:23:03;;;;;;;7.53;3.90;;;0.80;99.90;;;;;;5017703;28;20224;-45
2022/03/06 00:25:30;;;;;;;5.60;3.57;;;0.80;99.90;;;;;;5005334;28;20232;-44
2022/03/06 00:27:57;;;;;;;4.90;3.50;;;0.90;99.90;;;;;;5008922;28;20210;-45
2022/03/06 00:30:24;;;;;;;13.33;4.07;;;0.90;99.90;;;;;;5002803;28;20234;-47
2022/03/06 00:32:52;;;;;;;5.70;3.83;;;1.00;99.90;;;;;;5002311;28;20606;-43
2022/03/06 00:35:19;;;;;;;6.67;4.00;;;1.00;99.90;;;;;;4999936;28;20218;-50
2022/03/06 00:37:45;;;;;;;5.23;3.87;;;1.00;99.90;;;;;;5008545;28;20452;-43
2022/03/06 00:40:13;;;;;;;6.37;3.50;;;1.00;99.90;;;;;;5004890;28;20288;-47
2022/03/06 00:42:40;;;;;;;9.17;3.53;;;1.00;99.90;;;;;;5015647;28;20331;-44
2022/03/06 00:45:08;;;;;;;6.03;4.47;;;1.00;99.90;;;;;;5012094;28;20344;-46
2022/03/06 00:47:34;;;;;;;6.80;3.93;;;1.00;99.90;;;;;;5001254;28;20675;-45
2022/03/06 00:50:03;;;;;;;6.07;3.63;;;1.00;99.90;;;;;;4988011;28;20223;-43
2022/03/06 00:52:30;;;;;;;4.67;3.43;;;1.00;99.90;;;;;;5005839;28;20232;-48
2022/03/06 00:54:57;;;;;;;6.03;3.83;;;1.10;99.90;;;;;;5004803;28;20207;-46
2022/03/06 00:57:23;;;;;;;7.30;4.27;;;1.10;99.90;;;;;;5020206;28;20256;-44
2022/03/06 00:59:50;;;;;;;6.23;3.80;;;1.00;99.90;;;;;;5009046;28;20765;-44
2022/03/06 01:02:17;;;;;;;5.53;3.90;;;1.00;99.90;;;;;;4997531;28;20415;-44
2022/03/06 01:04:44;;;;;;;7.07;3.70;;;1.00;99.90;;;;;;5005047;28;20384;-44
2022/03/06 01:07:12;;;;;;;7.83;4.00;;;1.00;99.90;;;;;;4991003;28;20525;-44
2022/03/06 01:09:39;;;;;;;6.87;3.50;;;1.10;99.90;;;;;;5003279;28;20206;-44
2022/03/06 01:12:07;;;;;;;7.97;3.53;;;1.10;99.90;;;;;;5016208;28;20261;-44
2022/03/06 01:14:34;;;;;;;5.60;3.70;;;1.10;99.90;;;;;;4989780;28;20213;-44
2022/03/06 01:17:00;;;;;;;7.13;4.30;;;1.10;99.90;;;;;;5012806;28;20400;-43
2022/03/06 01:19:27;;;;;;;4.90;3.30;;;1.10;99.90;;;;;;5006560;28;20202;-44
2022/03/06 01:21:54;;;;;;;5.67;3.40;;;1.00;99.90;;;;;;4987149;28;20893;-44
2022/03/06 01:24:22;;;;;;;6.07;3.40;;;1.00;99.90;;;;;;5014143;28;20210;-44
2022/03/06 01:26:49;;;;;;;4.57;3.73;;;1.00;99.90;;;;;;5017551;28;20322;-43
2022/03/06 01:29:18;;;;;;;5.67;3.70;;;1.00;99.90;;;;;;5017078;28;20259;-44
2022/03/06 01:31:45;;;;;;;7.17;3.50;;;1.00;99.90;;;;;;5007763;28;20325;-44
2022/03/06 01:34:12;;;;;;;6.47;3.83;;;1.00;99.90;;;;;;5006488;28;20281;-44
2022/03/06 01:36:39;;;;;;;6.07;4.03;;;1.00;99.90;;;;;;4998498;28;20263;-45
2022/03/06 01:39:06;;;;;;;6.40;3.20;;;1.00;99.90;;;;;;4998803;28;20207;-44
2022/03/06 01:41:35;;;;;;;5.57;3.13;;;1.00;99.90;;;;;;5012802;28;20233;-44
2022/03/06 01:44:02;;;;;;;5.37;3.43;;;1.00;99.90;;;;;;5018601;28;20550;-45
2022/03/06 01:46:29;;;;;;;7.13;3.20;;;1.00;99.90;;;;;;4994968;28;20234;-44
2022/03/06 01:48:56;;;;;;;4.20;2.70;;;1.00;99.90;;;;;;5008089;28;20208;-44
2022/03/06 01:51:23;;;;;;;4.60;3.10;;;1.00;99.90;;;;;;4997786;28;20212;-45
2022/03/06 01:53:49;;;;;;;6.87;2.87;;;1.00;99.90;;;;;;5008798;28;20416;-44
2022/03/06 01:56:17;;;;;;;7.13;3.60;;;1.10;99.90;;;;;;5021537;28;20225;-44
2022/03/06 01:58:45;;;;;;;3.00;2.70;;;1.00;99.90;;;;;;5008214;28;20251;-43
2022/03/06 02:01:12;;;;;;;5.17;3.07;;;1.00;99.90;;;;;;5017902;28;20402;-44
2022/03/06 02:03:39;;;;;;;5.33;3.30;;;1.10;99.90;;;;;;5008408;28;20582;-44
2022/03/06 02:06:07;;;;;;;4.13;2.90;;;1.00;99.90;;;;;;5001270;28;20329;-44
2022/03/06 02:08:34;;;;;;;5.90;3.13;;;1.00;99.90;;;;;;4997201;28;20539;-44
2022/03/06 02:11:02;;;;;;;3.47;2.60;;;1.00;99.90;;;;;;5014976;28;20313;-44
2022/03/06 02:13:28;;;;;;;5.10;3.03;;;1.00;99.90;;;;;;5002464;28;20348;-45
2022/03/06 02:15:57;;;;;;;3.73;2.90;;;1.00;99.90;;;;;;5013395;28;20235;-42
2022/03/06 02:18:24;;;;;;;5.43;2.80;;;1.00;99.90;;;;;;5006013;28;20210;-47
2022/03/06 02:20:51;;;;;;;5.93;2.90;;;1.10;99.90;;;;;;4991784;28;20813;-43
2022/03/06 02:23:19;;;;;;;6.13;2.73;;;1.00;99.90;;;;;;4996221;28;20229;-47
2022/03/06 02:25:46;;;;;;;4.90;2.90;;;1.00;99.90;;;;;;5005969;28;20233;-45
2022/03/06 02:28:13;;;;;;;6.30;2.73;;;1.00;99.90;;;;;;5018946;28;20422;-44
2022/03/06 02:30:41;;;;;;;9.33;3.10;;;1.00;99.90;;;;;;5011924;28;20541;-45
2022/03/06 02:33:10;;;;;;;5.13;2.90;;;1.00;99.90;;;;;;4988820;28;20233;-48
2022/03/06 02:35:38;;;;;;;3.73;2.70;;;1.10;99.90;;;;;;5009843;28;20233;-44
2022/03/06 02:38:06;;;;;;;3.50;2.60;;;1.10;99.90;;;;;;4984652;28;20264;-45
2022/03/06 02:40:38;;;;;;;4.50;2.57;;;1.10;99.90;;;;;;5015262;28;20572;-48
2022/03/06 02:43:06;;;;;;;3.20;2.53;;;1.00;99.90;;;;;;5011628;28;20226;-45
2022/03/06 02:45:33;;;;;;;5.77;2.80;;;1.00;99.90;;;;;;5002051;28;20663;-44
2022/03/06 02:48:00;;;;;;;6.10;2.30;;;1.00;99.90;;;;;;5004349;28;20287;-45
2022/03/06 02:50:29;;;;;;;5.83;2.60;;;1.00;99.90;;;;;;5016843;28;20209;-44
2022/03/06 02:52:57;;;;;;;5.10;2.50;;;1.20;99.90;;;;;;5002507;28;20324;-44
2022/03/06 02:55:24;;;;;;;4.33;2.37;;;1.00;99.90;;;;;;4999051;28;20299;-43
2022/03/06 02:57:53;;;;;;;4.17;2.50;;;1.00;99.90;;;;;;5012946;28;20453;-44
2022/03/06 03:00:22;;;;;;;4.47;2.47;;;1.00;99.90;;;;;;4995739;28;20571;-44
2022/03/06 03:02:49;;;;;;;4.07;2.70;;;1.00;99.90;;;;;;5013976;28;20247;-44
2022/03/06 03:05:17;;;;;;;3.60;2.70;;;1.00;99.90;;;;;;4988474;28;20214;-44
2022/03/06 03:07:48;;;;;;;4.40;2.40;;;1.00;99.90;;;;;;5009883;28;20500;-44
2022/03/06 03:10:18;;;;;;;5.33;2.63;;;1.10;99.90;;;;;;4997132;28;20460;-44
2022/03/06 03:12:45;;;;;;;5.17;2.80;;;1.00;99.90;;;;;;5013323;28;20248;-44
2022/03/06 03:15:14;;;;;;;5.03;2.83;;;1.00;99.90;;;;;;5014744;28;20215;-44
2022/03/06 03:17:41;;;;;;;4.30;2.90;;;1.00;99.90;;;;;;5004380;28;20420;-45
2022/03/06 03:20:09;;;;;;;8.40;2.60;;;1.10;99.90;;;;;;5008144;28;20480;-45
2022/03/06 03:22:37;;;;;;;3.27;2.57;;;1.00;99.90;;;;;;5011304;28;20641;-45
2022/03/06 03:25:05;;;;;;;2.90;2.40;;;1.00;99.90;;;;;;5001472;28;20237;-45
2022/03/06 03:27:32;;;;;;;3.10;2.20;;;1.00;99.90;;;;;;5015597;28;20237;-46
2022/03/06 03:29:59;;;;;;;4.60;2.50;;;0.90;99.90;;;;;;5010434;28;20596;-44
2022/03/06 03:32:27;;;;;;;2.57;2.17;;;0.90;99.90;;;;;;5000717;28;20444;-46
2022/03/06 03:34:54;;;;;;;2.53;2.20;;;0.90;99.90;;;;;;5014911;28;20364;-44
2022/03/06 03:37:21;;;;;;;2.40;2.20;;;0.90;99.90;;;;;;5017429;28;20497;-44
2022/03/06 03:39:48;;;;;;;7.83;2.40;;;0.90;99.90;;;;;;5006548;28;20285;-44
2022/03/06 03:42:15;;;;;;;5.07;2.67;;;0.90;99.90;;;;;;4996879;28;20366;-43
2022/03/06 03:44:41;;;;;;;3.90;2.43;;;0.90;99.90;;;;;;5024113;28;20220;-45
2022/03/06 03:47:08;;;;;;;3.20;2.03;;;0.90;99.90;;;;;;5004848;28;20342;-44
2022/03/06 03:49:37;;;;;;;3.33;2.20;;;0.90;99.90;;;;;;5019947;28;20440;-45
2022/03/06 03:52:04;;;;;;;4.03;2.33;;;0.90;99.90;;;;;;4993289;28;20358;-43
2022/03/06 03:54:31;;;;;;;6.57;2.60;;;0.90;99.90;;;;;;5022534;28;20398;-44
2022/03/06 03:56:58;;;;;;;4.57;2.30;;;0.90;99.90;;;;;;5000790;28;20212;-44
2022/03/06 03:59:24;;;;;;;4.50;2.10;;;0.90;99.90;;;;;;5011000;28;20661;-45
2022/03/06 04:01:52;;;;;;;5.40;2.50;;;0.90;99.90;;;;;;5018821;28;23055;-44
2022/03/06 04:04:19;;;;;;;2.10;1.90;;;0.90;99.90;;;;;;5001290;28;20305;-45
2022/03/06 04:06:47;;;;;;;3.73;2.20;;;1.00;99.90;;;;;;4988006;28;20377;-44
2022/03/06 04:09:14;;;;;;;4.10;2.10;;;0.90;99.90;;;;;;5019185;28;20277;-44
2022/03/06 04:11:41;;;;;;;3.20;2.57;;;0.90;99.90;;;;;;4997827;28;20461;-45
2022/03/06 04:14:08;;;;;;;5.53;2.43;;;0.90;99.90;;;;;;5021210;28;20611;-44
2022/03/06 04:16:35;;;;;;;4.60;2.13;;;0.90;99.90;;;;;;5017957;28;20666;-48
2022/03/06 04:19:02;;;;;;;5.53;2.20;;;1.00;99.90;;;;;;5002880;28;20218;-45
2022/03/06 04:21:29;;;;;;;5.30;2.10;;;0.80;99.90;;;;;;5008116;28;20253;-44
2022/03/06 04:23:57;;;;;;;2.53;2.30;;;0.80;99.90;;;;;;5019680;28;20209;-44
2022/03/06 04:26:24;;;;;;;4.10;2.07;;;0.80;99.90;;;;;;4995443;28;20232;-46
2022/03/06 04:28:51;;;;;;;3.90;2.40;;;0.70;99.90;;;;;;5004693;28;20485;-45
2022/03/06 04:31:18;;;;;;;3.33;1.80;;;0.70;99.90;;;;;;5018213;28;20487;-46
2022/03/06 04:33:45;;;;;;;3.77;2.07;;;0.90;99.90;;;;;;5016970;28;20627;-44
2022/03/06 04:36:13;;;;;;;3.60;2.70;;;0.60;99.90;;;;;;5021547;28;20211;-44
2022/03/06 04:38:41;;;;;;;4.53;2.10;;;0.60;99.90;;;;;;4988341;28;20203;-45
2022/03/06 04:41:10;;;;;;;4.00;2.40;;;0.60;99.90;;;;;;5010219;28;20222;-44
2022/03/06 04:43:37;;;;;;;3.60;2.13;;;0.60;99.90;;;;;;4981843;28;20542;-44
2022/03/06 04:46:03;;;;;;;2.73;2.20;;;0.60;99.90;;;;;;5015268;28;20212;-44
2022/03/06 04:48:30;;;;;;;4.23;2.37;;;0.60;99.90;;;;;;5001927;28;20481;-44
2022/03/06 04:50:57;;;;;;;3.53;2.13;;;0.60;99.90;;;;;;5017066;28;20467;-44
2022/03/06 04:53:24;;;;;;;3.87;2.20;;;0.60;99.90;;;;;;4991855;28;20304;-43
2022/03/06 04:55:51;;;;;;;2.90;1.93;;;0.60;99.90;;;;;;5009769;28;20213;-44
2022/03/06 04:58:19;;;;;;;3.87;2.00;;;0.60;99.90;;;;;;4982323;28;20610;-43
2022/03/06 05:00:46;;;;;;;3.27;1.83;;;0.50;99.90;;;;;;4996188;28;20218;-44
2022/03/06 05:03:13;;;;;;;2.90;1.90;;;0.40;99.90;;;;;;5014874;28;20561;-43
2022/03/06 05:05:40;;;;;;;3.43;2.07;;;0.40;99.90;;;;;;4998382;28;20376;-45
2022/03/06 05:08:07;;;;;;;5.47;2.37;;;0.40;99.90;;;;;;5018042;28;20247;-43
2022/03/06 05:10:35;;;;;;;5.87;2.20;;;0.30;99.90;;;;;;4987303;28;20478;-45
2022/03/06 05:13:03;;;;;;;2.57;1.83;;;0.30;99.90;;;;;;5015953;28;20226;-44
2022/03/06 05:15:31;;;;;;;2.93;1.70;;;0.30;99.90;;;;;;4988677;28;20219;-43
2022/03/06 05:17:58;;;;;;;2.97;1.80;;;0.20;99.90;;;;;;4998860;28;20217;-43
2022/03/06 05:20:25;;;;;;;3.93;1.70;;;0.20;99.90;;;;;;4988805;28;20237;-44
2022/03/06 05:22:52;;;;;;;4.13;1.90;;;0.10;99.90;;;;;;5013628;28;20562;-43
2022/03/06 05:25:19;;;;;;;2.13;1.73;;;0.10;99.90;;;;;;5001918;28;20487;-45
2022/03/06 05:27:47;;;;;;;3.03;1.77;;;0.10;99.90;;;;;;4994179;28;20552;-43
2022/03/06 05:30:14;;;;;;;2.30;1.77;;;0.10;99.90;;;;;;4997104;28;20458;-44
2022/03/06 05:32:44;;;;;;;4.90;1.70;;;0.10;99.90;;;;;;5011739;28;20623;-43
2022/03/06 05:35:12;;;;;;;3.63;1.90;;;0.10;99.90;;;;;;5000489;28;20286;-43
2022/03/06 05:37:39;;;;;;;3.23;1.70;;;0.10;99.90;;;;;;5002978;28;20249;-44
2022/03/06 05:40:08;;;;;;;9.23;2.30;;;0.00;99.90;;;;;;4985429;28;20460;-44
2022/03/06 05:42:35;;;;;;;2.67;1.70;;;0.00;99.90;;;;;;5015468;28;20546;-44
2022/03/06 05:45:03;;;;;;;5.73;1.97;;;0.00;99.90;;;;;;4990532;28;20539;-45
2022/03/06 05:47:30;;;;;;;6.33;2.13;;;0.00;99.90;;;;;;5021024;28;20292;-44
2022/03/06 05:49:58;;;;;;;3.97;1.90;;;0.00;99.90;;;;;;4998868;28;20753;-45
2022/03/06 05:52:25;;;;;;;3.77;1.83;;;0.00;99.90;;;;;;5010019;28;20550;-44
2022/03/06 05:54:51;;;;;;;2.40;1.60;;;0.00;99.90;;;;;;5015516;28;20763;-44
2022/03/06 05:57:18;;;;;;;2.57;1.80;;;-0.10;99.90;;;;;;5010389;28;20414;-43
2022/03/06 05:59:45;;;;;;;2.87;2.10;;;-0.10;99.90;;;;;;5009969;28;20230;-43
2022/03/06 06:02:13;;;;;;;2.17;1.90;;;-0.10;99.90;;;;;;5019773;28;20450;-44
2022/03/06 06:04:41;;;;;;;4.27;2.17;;;-0.20;99.90;;;;;;4989286;28;22638;-44
2022/03/06 06:07:10;;;;;;;2.20;1.97;;;-0.10;99.90;;;;;;5020260;28;20442;-45
2022/03/06 06:09:37;;;;;;;5.50;2.43;;;-0.20;99.90;;;;;;5012467;28;20220;-49
2022/03/06 06:12:05;;;;;;;2.90;2.00;;;-0.20;99.90;;;;;;5022736;28;20293;-45
2022/03/06 06:14:32;;;;;;;3.30;2.00;;;-0.20;99.90;;;;;;5007447;28;20440;-43
2022/03/06 06:16:59;;;;;;;3.13;2.10;;;-0.20;99.90;;;;;;5019449;28;20290;-44
2022/03/06 06:19:26;;;;;;;5.93;2.50;;;-0.20;99.90;;;;;;5015488;28;20273;-44
2022/03/06 06:21:53;;;;;;;2.90;2.07;;;-0.30;99.90;;;;;;5007818;28;20656;-44
2022/03/06 06:24:21;;;;;;;3.10;1.80;;;-0.30;99.90;;;;;;5006545;28;20528;-44
2022/03/06 06:26:51;;;;;;;4.27;2.20;;;-0.40;99.90;;;;;;5005754;28;20313;-44
2022/03/06 06:29:19;;;;;;;3.97;2.20;;;-0.40;99.90;;;;;;5017667;28;20214;-44
2022/03/06 06:31:45;;;;;;;3.50;2.40;;;-0.40;99.90;;;;;;5006700;28;20446;-43
2022/03/06 06:34:13;;;;;;;6.40;2.33;;;-0.30;99.90;;;;;;5022322;28;20620;-43
2022/03/06 06:36:40;;;;;;;2.90;2.10;;;-0.30;99.90;;;;;;5008706;28;20235;-43
2022/03/06 06:39:09;;;;;;;4.23;2.40;;;-0.30;99.90;;;;;;5009504;28;20314;-43
2022/03/06 06:41:38;;;;;;;3.73;2.57;;;-0.30;99.90;;;;;;5011182;28;20584;-44
2022/03/06 06:44:05;;;;;;;2.53;1.90;;;-0.20;99.90;;;;;;5020061;28;20237;-44
2022/03/06 06:46:32;;;;;;;3.90;2.30;;;-0.20;99.90;;;;;;5002373;28;20221;-44
2022/03/06 06:48:59;;;;;;;3.50;2.40;;;-0.10;99.90;;;;;;5014067;28;20513;-43
2022/03/06 06:51:27;;;;;;;2.67;2.40;;;-0.10;99.90;;;;;;5019679;28;20245;-44
2022/03/06 06:53:54;;;;;;;3.10;2.47;;;-0.10;99.90;;;;;;5008752;28;21546;-43
2022/03/06 06:56:21;;;;;;;5.90;2.40;;;-0.10;99.90;;;;;;5001805;28;20480;-47
2022/03/06 06:58:49;;;;;;;4.17;2.73;;;0.00;99.90;;;;;;5005348;28;20733;-46
2022/03/06 07:01:17;;;;;;;4.70;2.47;;;0.00;99.90;;;;;;5006624;28;20214;-42
2022/03/06 07:03:44;;;;;;;4.87;3.17;;;0.00;99.90;;;;;;5003624;28;20413;-45
2022/03/06 07:06:10;;;;;;;4.20;2.77;;;0.10;99.90;;;;;;5015670;28;20195;-43
2022/03/06 07:08:37;;;;;;;2.90;2.70;;;0.10;99.90;;;;;;5005182;28;20220;-43
2022/03/06 07:11:04;;;;;;;4.03;3.60;;;0.20;99.90;;;;;;5009903;28;20236;-45
2022/03/06 07:13:31;;;;;;;3.57;3.03;;;0.20;99.90;;;;;;5009118;28;20256;-43
2022/03/06 07:16:00;;;;;;;3.73;3.07;;;0.20;99.90;;;;;;5020969;28;20575;-44
2022/03/06 07:18:27;;;;;;;7.93;3.07;;;0.30;99.90;;;;;;4998697;28;20621;-43
2022/03/06 07:20:54;;;;;;;7.73;3.37;;;0.30;99.90;;;;;;5022150;28;20364;-43
2022/03/06 07:23:21;;;;;;;4.10;3.03;;;0.30;99.90;;;;;;5005904;28;20569;-45
2022/03/06 07:25:48;;;;;;;4.07;2.73;;;0.40;99.90;;;;;;5011697;28;20216;-44
2022/03/06 07:28:15;;;;;;;5.80;3.53;;;0.40;99.90;;;;;;5006319;28;20597;-44
2022/03/06 07:30:42;;;;;;;3.90;2.83;;;0.50;99.90;;;;;;5016656;28;20542;-43
2022/03/06 07:33:10;;;;;;;3.40;2.70;;;0.50;99.90;;;;;;5002654;28;20237;-44
2022/03/06 07:35:37;;;;;;;5.67;3.37;;;0.50;99.90;;;;;;5020464;28;20313;-45
2022/03/06 07:38:04;;;;;;;4.47;3.20;;;0.50;99.90;;;;;;5008570;28;20525;-44
2022/03/06 07:40:31;;;;;;;7.20;3.67;;;0.60;99.90;;;;;;5016945;28;20315;-45
2022/03/06 07:42:58;;;;;;;4.53;2.83;;;0.60;99.90;;;;;;4998209;28;20802;-44
2022/03/06 07:45:25;;;;;;;4.87;3.30;;;0.60;99.90;;;;;;5006911;28;20202;-44
2022/03/06 07:47:52;;;;;;;4.10;3.17;;;0.60;99.90;;;;;;5020031;28;20260;-44
2022/03/06 07:50:20;;;;;;;3.43;2.80;;;0.70;99.90;;;;;;4999732;28;20593;-46
2022/03/06 07:52:47;;;;;;;3.00;2.77;;;0.70;99.90;;;;;;5022805;28;20218;-46
2022/03/06 07:55:14;;;;;;;4.80;3.20;;;0.80;99.90;;;;;;4987992;28;20223;-45
2022/03/06 07:57:41;;;;;;;6.17;3.20;;;0.80;99.90;;;;;;4999858;28;20284;-49
2022/03/06 08:00:11;;;;;;;3.23;2.93;;;0.90;99.90;;;;;;5016814;28;20228;-45
2022/03/06 08:02:38;;;;;;;5.17;2.90;;;0.90;99.90;;;;;;5019142;28;20229;-48
2022/03/06 08:05:06;;;;;;;3.37;3.03;;;0.90;99.90;;;;;;4998348;28;20304;-44
2022/03/06 08:07:34;;;;;;;3.73;2.93;;;0.90;99.90;;;;;;5018535;28;20554;-48
2022/03/06 08:10:04;;;;;;;4.00;2.73;;;0.90;99.90;;;;;;5006007;28;20290;-45
2022/03/06 08:12:31;;;;;;;3.97;2.53;;;1.00;99.90;;;;;;5006255;28;20231;-46
2022/03/06 08:14:58;;;;;;;3.57;3.00;;;1.00;99.90;;;;;;5004481;28;20406;-44
2022/03/06 08:17:25;;;;;;;4.70;3.30;;;1.10;99.90;;;;;;5017381;28;20321;-44
2022/03/06 08:19:53;;;;;;;3.67;2.60;;;1.20;99.90;;;;;;5001734;28;20213;-44
2022/03/06 08:22:21;;;;;;;6.40;3.67;;;1.20;99.90;;;;;;5026991;28;20253;-46
2022/03/06 08:24:49;;;;;;;4.97;3.30;;;1.30;99.90;;;;;;5007772;28;20252;-45
2022/03/06 08:27:16;;;;;;;7.47;3.03;;;1.40;99.90;;;;;;5025960;28;20304;-44
2022/03/06 08:29:43;;;;;;;3.70;2.97;;;1.50;99.90;;;;;;5005207;28;20291;-45
2022/03/06 08:32:10;;;;;;;3.93;2.60;;;1.60;99.90;;;;;;5022965;28;20232;-45
2022/03/06 08:34:37;;;;;;;4.97;2.67;;;1.70;99.90;;;;;;5009402;28;20209;-46
2022/03/06 08:37:05;;;;;;;2.90;2.57;;;1.70;99.90;;;;;;5012931;28;20441;-46
2022/03/06 08:39:32;;;;;;;3.63;2.67;;;1.80;99.90;;;;;;5021993;28;20279;-46
2022/03/06 08:42:00;;;;;;;3.40;2.70;;;1.90;99.90;;;;;;5008155;28;20409;-45
2022/03/06 08:44:27;;;;;;;3.63;2.93;;;2.00;99.90;;;;;;5010225;28;20213;-44
2022/03/06 08:46:54;;;;;;;3.17;2.50;;;2.00;99.90;;;;;;5022190;28;20437;-43
2022/03/06 08:49:21;;;;;;;4.30;2.70;;;2.00;99.90;;;;;;5020451;28;20253;-43
2022/03/06 08:51:48;;;;;;;4.63;3.20;;;2.00;99.90;;;;;;4997883;28;20461;-43
2022/03/06 08:54:15;;;;;;;2.93;2.30;;;2.10;99.90;;;;;;5019975;28;20218;-45
2022/03/06 08:56:42;;;;;;;3.77;2.53;;;2.20;99.90;;;;;;5010384;28;20460;-48
2022/03/06 08:59:10;;;;;;;7.03;2.47;;;2.10;99.90;;;;;;5014185;28;20574;-44
2022/03/06 09:01:37;;;;;;;5.10;2.97;;;2.20;99.90;;;;;;5007162;28;20413;-47
2022/03/06 09:04:04;;;;;;;3.33;2.70;;;2.20;99.90;;;;;;5016163;28;20394;-47
2022/03/06 09:06:31;;;;;;;3.73;2.50;;;2.30;99.90;;;;;;4993346;28;20216;-48
2022/03/06 09:08:58;;;;;;;4.57;2.60;;;2.40;99.90;;;;;;5014231;28;20483;-46
2022/03/06 09:11:25;;;;;;;7.60;2.97;;;2.30;99.90;;;;;;5020322;28;20602;-43
2022/03/06 09:13:51;;;;;;;5.43;2.50;;;2.40;99.90;;;;;;5004799;28;20230;-44
2022/03/06 09:16:20;;;;;;;6.13;2.80;;;2.40;99.90;;;;;;5007261;28;20286;-46
2022/03/06 09:18:47;;;;;;;5.90;2.97;;;2.40;99.90;;;;;;5015189;28;20280;-47
2022/03/06 09:21:14;;;;;;;6.50;2.87;;;2.40;99.90;;;;;;5023477;28;20227;-46
2022/03/06 09:23:41;;;;;;;6.53;2.90;;;2.40;99.90;;;;;;5003070;28;20215;-49
2022/03/06 09:26:08;;;;;;;3.43;2.70;;;2.50;99.90;;;;;;5025665;28;20216;-47
2022/03/06 09:28:35;;;;;;;3.53;2.60;;;2.50;99.90;;;;;;5011623;28;20294;-47
2022/03/06 09:31:02;;;;;;;3.43;2.80;;;2.50;99.90;;;;;;5025655;28;20471;-45
2022/03/06 09:33:30;;;;;;;2.93;2.63;;;2.60;99.90;;;;;;5014054;28;20254;-46
2022/03/06 09:35:58;;;;;;;4.93;2.93;;;2.60;99.90;;;;;;5006119;28;20441;-45
2022/03/06 09:38:24;;;;;;;4.17;3.13;;;2.60;99.90;;;;;;5003470;28;20297;-45
2022/03/06 09:40:55;;;;;;;5.13;2.77;;;2.60;99.90;;;;;;5014394;28;20572;-47
2022/03/06 09:43:22;;;;;;;6.27;2.83;;;2.60;99.90;;;;;;5018405;28;20232;-44
2022/03/06 09:45:49;;;;;;;2.87;2.47;;;2.70;99.90;;;;;;5015158;28;20294;-44
2022/03/06 09:48:18;;;;;;;7.20;2.93;;;2.70;99.90;;;;;;5006821;28;20250;-44
2022/03/06 09:50:46;;;;;;;6.13;2.87;;;2.70;99.90;;;;;;5016943;28;20215;-45
2022/03/06 09:53:13;;;;;;;3.67;2.63;;;2.70;99.90;;;;;;5008626;28;20227;-44
2022/03/06 09:55:40;;;;;;;4.60;3.07;;;2.70;99.90;;;;;;4999691;28;20621;-45
2022/03/06 09:58:07;;;;;;;3.97;3.00;;;2.70;99.90;;;;;;5022322;28;20271;-45
2022/03/06 10:00:34;;;;;;;4.70;3.20;;;2.70;99.90;;;;;;5013829;28;20205;-43
2022/03/06 10:03:03;;;;;;;3.13;2.60;;;2.70;99.90;;;;;;5009481;28;20480;-44
2022/03/06 10:05:32;;;;;;;3.07;2.67;;;2.80;99.90;;;;;;5016866;28;20242;-43
2022/03/06 10:08:21;;;;;;;3.33;2.67;;;2.90;99.90;;;;;;5019253;28;20215;-44
2022/03/06 10:10:50;;;;;;;6.60;3.20;;;2.90;99.90;;;;;;5008501;28;20610;-45
2022/03/06 10:13:22;;;;;;;4.97;3.20;;;2.80;99.90;;;;;;5025572;28;20472;-45
2022/03/06 10:16:14;;;;;;;3.03;2.50;;;2.90;99.90;;;;;;5002377;28;20833;-45
2022/03/06 10:18:43;;;;;;;4.40;2.80;;;2.90;99.90;;;;;;4990760;28;20368;-44
2022/03/06 10:21:29;;;;;;;7.97;2.80;;;3.00;99.90;;;;;;5021209;28;20213;-44
2022/03/06 10:23:58;;;;;;;3.47;2.80;;;3.10;99.90;;;;;;5028464;28;20530;-45
2022/03/06 10:26:27;;;;;;;3.40;2.50;;;3.10;99.90;;;;;;5001796;28;20509;-44
2022/03/06 10:28:57;;;;;;;3.40;2.97;;;3.10;99.90;;;;;;5010501;28;20392;-43
2022/03/06 10:31:25;;;;;;;3.30;2.90;;;3.20;99.90;;;;;;5008710;28;20315;-44
2022/03/06 10:34:00;;;;;;;5.33;3.10;;;3.20;99.90;;;;;;5011656;28;20208;-43
2022/03/06 10:36:32;;;;;;;4.23;3.13;;;3.30;99.90;;;;;;5020902;28;20413;-43
2022/03/06 10:39:01;;;;;;;5.40;3.07;;;3.30;99.90;;;;;;5024227;28;20268;-45
2022/03/06 10:41:35;;;;;;;4.97;3.10;;;3.30;99.90;;;;;;5003555;28;20243;-43
2022/03/06 10:44:03;;;;;;;3.77;3.07;;;3.30;99.90;;;;;;5025477;28;20211;-45
2022/03/06 10:46:33;;;;;;;6.93;4.93;;;3.40;99.90;;;;;;5021753;28;20284;-43
2022/03/06 10:49:07;;;;;;;6.13;3.60;;;3.40;99.90;;;;;;5015234;28;20231;-44
2022/03/06 10:51:38;;;;;;;5.90;4.37;;;3.50;99.90;;;;;;5026993;28;20234;-43
2022/03/06 10:54:06;;;;;;;3.80;3.40;;;3.50;99.90;;;;;;5015412;28;20212;-43
2022/03/06 10:56:33;;;;;;;4.07;3.30;;;3.50;99.90;;;;;;5001002;28;20252;-44
2022/03/06 10:59:04;;;;;;;3.10;2.80;;;3.50;99.90;;;;;;5017891;28;20200;-44
2022/03/06 11:01:31;;;;;;;3.87;3.00;;;3.60;99.90;;;;;;5015755;28;20255;-43
2022/03/06 11:04:00;;;;;;;4.77;2.67;;;3.60;99.90;;;;;;5015653;28;20241;-45
2022/03/06 11:06:28;;;;;;;3.97;3.03;;;3.60;99.90;;;;;;5008962;28;20240;-43
2022/03/06 11:08:55;;;;;;;3.70;2.90;;;3.60;99.90;;;;;;5022533;28;20225;-45
2022/03/06 11:11:24;;;;;;;3.63;2.83;;;3.60;99.90;;;;;;4994402;28;20383;-44
2022/03/06 11:13:54;;;;;;;3.40;2.53;;;3.60;99.90;;;;;;5028962;28;20512;-45
2022/03/06 11:16:21;;;;;;;5.17;2.53;;;3.60;99.90;;;;;;5014272;28;20565;-46
2022/03/06 11:18:48;;;;;;;3.70;2.70;;;3.70;99.90;;;;;;5013640;28;20201;-44
2022/03/06 11:21:15;;;;;;;3.70;2.47;;;3.80;99.90;;;;;;5008703;28;20226;-44
2022/03/06 11:23:45;;;;;;;3.30;2.67;;;3.90;99.90;;;;;;5010909;28;20205;-45
2022/03/06 11:26:31;;;;;;;4.53;2.27;;;3.90;99.90;;;;;;5021231;28;20214;-46
2022/03/06 11:29:19;;;;;;;3.10;2.60;;;3.90;99.90;;;;;;5018438;28;20222;-44
2022/03/06 11:31:47;;;;;;;4.00;2.60;;;3.90;99.90;;;;;;5009931;28;20304;-45
2022/03/06 11:34:23;;;;;;;3.33;2.43;;;4.00;99.90;;;;;;5002286;28;20249;-46
2022/03/06 11:36:51;;;;;;;4.13;2.20;;;4.00;99.90;;;;;;5009460;28;20209;-44
2022/03/06 11:39:46;;;;;;;4.47;2.63;;;4.00;99.90;;;;;;5021063;28;20215;-45
2022/03/06 11:42:54;;;;;;;3.67;2.30;;;4.00;99.90;;;;;;5015783;28;20261;-47
2022/03/06 11:45:50;;;;;;;9.07;3.17;;;3.90;99.90;;;;;;5002744;28;20507;-46
2022/03/06 11:48:48;;;;;;;2.43;2.10;;;4.00;99.90;;;;;;5010804;28;20244;-46
2022/03/06 11:51:29;;;;;;;4.10;2.70;;;4.20;99.90;;;;;;5010247;28;20205;-45
2022/03/06 11:54:00;;;;;;;4.67;2.50;;;4.30;99.90;;;;;;5021588;28;20229;-45
2022/03/06 11:56:56;;;;;;;2.70;2.10;;;4.20;99.90;;;;;;4999636;28;20230;-45
2022/03/06 11:59:28;;;;;;;5.30;2.47;;;4.30;99.90;;;;;;5005472;28;20263;-46
2022/03/06 12:01:56;;;;;;;2.57;2.20;;;4.30;99.90;;;;;;5015176;28;20316;-44
2022/03/06 12:04:26;;;;;;;2.57;2.17;;;4.40;99.90;;;;;;4999287;28;20238;-46
2022/03/06 12:06:54;;;;;;;3.57;2.07;;;4.50;99.90;;;;;;5008901;28;20428;-46
2022/03/06 12:09:23;;;;;;;2.60;2.10;;;4.60;99.90;;;;;;5018558;28;20268;-49
2022/03/06 12:11:53;;;;;;;3.53;2.30;;;4.60;99.90;;;;;;5022292;28;20324;-44
2022/03/06 12:14:22;;;;;;;3.90;2.10;;;4.50;99.90;;;;;;5006093;28;20222;-48
2022/03/06 12:17:32;;;;;;;3.23;2.23;;;4.50;99.90;;;;;;5029142;28;20213;-45
2022/03/06 12:20:40;;;;;;;3.03;2.10;;;4.40;99.90;;;;;;4993004;28;20329;-45
2022/03/06 12:23:09;;;;;;;4.00;2.30;;;4.50;99.90;;;;;;5008963;28;20518;-44
2022/03/06 12:25:39;;;;;;;3.17;2.30;;;4.60;99.90;;;;;;5019299;28;20674;-45
2022/03/06 12:28:20;;;;;;;4.90;2.20;;;4.60;99.90;;;;;;5025082;28;20226;-45
2022/03/06 12:30:48;;;;;;;5.43;2.37;;;4.50;99.90;;;;;;5003184;28;20220;-45
2022/03/06 12:33:43;;;;;;;2.37;2.17;;;4.40;99.90;;;;;;5002860;28;20237;-43
2022/03/06 12:36:23;;;;;;;3.93;2.30;;;4.20;99.90;;;;;;5012206;28;20273;-44
2022/03/06 12:38:56;;;;;;;3.17;2.23;;;4.20;99.90;;;;;;4992142;28;20209;-45
2022/03/06 12:41:23;;;;;;;3.27;2.03;;;4.20;99.90;;;;;;5001033;28;20276;-44
2022/03/06 12:44:01;;;;;;;2.80;2.13;;;4.20;99.90;;;;;;5006803;28;20291;-46
2022/03/06 12:46:28;;;;;;;3.00;2.03;;;4.30;99.90;;;;;;4987656;28;20210;-43
2022/03/06 12:48:57;;;;;;;3.20;2.00;;;4.40;99.90;;;;;;5025284;28;20228;-46
2022/03/06 12:51:35;;;;;;;4.90;2.30;;;4.60;99.90;;;;;;4996392;28;20320;-47
2022/03/06 12:54:03;;;;;;;2.97;2.20;;;4.60;99.90;;;;;;4997935;28;20237;-48
2022/03/06 12:56:32;;;;;;;3.07;2.20;;;4.70;99.90;;;;;;4999859;28;21011;-43
2022/03/06 12:59:07;;;;;;;4.53;2.37;;;4.60;99.90;;;;;;5015832;28;20213;-46
2022/03/06 13:01:37;;;;;;;2.37;2.00;;;4.50;99.90;;;;;;5004178;28;21892;-44
2022/03/06 13:04:06;;;;;;;8.40;2.60;;;4.50;99.90;;;;;;5020973;28;20272;-48